createdAt,value
2023-04-18T00:00:59.554Z,101757.34
2023-04-18T00:06:01.059Z,101759.00
2023-04-18T00:11:02.591Z,101756.59
2023-04-18T00:16:04.272Z,101756.44
2023-04-18T00:21:06.788Z,101754.94
2023-04-18T00:26:08.614Z,101748.91
2023-04-18T00:31:10.235Z,101750.44
2023-04-18T00:36:11.825Z,101752.53
2023-04-18T00:41:13.341Z,101753.38
2023-04-18T00:46:14.967Z,101748.81
2023-04-18T00:51:16.688Z,101748.97
2023-04-18T00:56:18.232Z,101747.41
2023-04-18T01:01:19.749Z,101748.94
2023-04-18T01:06:21.527Z,101741.09
2023-04-18T01:11:23.161Z,101736.34
2023-04-18T01:16:25.106Z,101732.69
2023-04-18T01:21:27.024Z,101724.13
2023-04-18T01:26:29.233Z,101720.41
2023-04-18T01:31:34.575Z,101723.56
2023-04-18T01:36:38.361Z,101719.69
2023-04-18T01:41:42.049Z,101721.59
2023-04-18T01:46:44.650Z,101719.25
2023-04-18T01:51:46.392Z,101718.78
2023-04-18T01:56:49.018Z,101719.63
2023-04-18T02:01:51.677Z,101718.09
2023-04-18T02:06:53.705Z,101721.47
2023-04-18T02:11:55.537Z,101712.94
2023-04-18T02:17:01.284Z,101722.59
2023-04-18T02:22:03.134Z,101727.25
2023-04-18T02:27:06.302Z,101729.13
2023-04-18T02:32:08.243Z,101714.88
2023-04-18T02:37:10.140Z,101712.19
2023-04-18T02:42:14.326Z,101717.84
2023-04-18T02:47:16.033Z,101711.47
2023-04-18T02:52:20.548Z,101720.75
2023-04-18T02:57:22.448Z,101716.19
2023-04-18T03:02:35.839Z,101720.72
2023-04-18T03:07:51.198Z,101715.53
2023-04-18T03:12:53.836Z,101721.59
2023-04-18T03:17:56.975Z,101721.00
2023-04-18T03:23:00.237Z,101722.41
2023-04-18T03:28:04.968Z,101723.75
2023-04-18T03:33:08.584Z,101726.84
2023-04-18T03:38:10.251Z,101718.94
2023-04-18T03:43:14.624Z,101728.16
2023-04-18T03:48:16.654Z,101727.78
2023-04-18T03:53:20.337Z,101730.56
2023-04-18T04:03:26.024Z,101743.44
2023-04-18T04:08:28.364Z,101738.94
2023-04-18T04:13:30.362Z,101739.19
2023-04-18T04:18:33.943Z,101746.34
2023-04-18T04:23:38.286Z,101756.44
2023-04-18T04:28:40.516Z,101756.78
2023-04-18T04:33:42.946Z,101757.78
2023-04-18T04:38:50.826Z,101766.66
2023-04-18T04:43:54.726Z,101764.28
2023-04-18T04:49:01.540Z,101778.22
2023-04-18T04:54:03.922Z,101773.47
2023-04-18T04:59:05.691Z,101786.72
2023-04-18T05:04:11.499Z,101795.19
2023-04-18T05:09:13.123Z,101794.97
2023-04-18T05:14:15.126Z,101805.03
2023-04-18T05:19:16.920Z,101812.78
2023-04-18T05:24:18.670Z,101810.50
2023-04-18T05:29:20.303Z,101825.97
2023-04-18T05:34:21.830Z,101825.13
2023-04-18T05:39:23.339Z,101833.38
2023-04-18T05:44:24.924Z,101832.22
2023-04-18T05:49:26.463Z,101832.97
2023-04-18T05:54:27.993Z,101833.88
2023-04-18T05:59:29.519Z,101836.59
2023-04-18T06:04:31.247Z,101837.84
2023-04-18T06:09:32.917Z,101841.66
2023-04-18T06:14:34.441Z,101841.88
2023-04-18T06:19:35.962Z,101852.31
2023-04-18T06:24:37.457Z,101852.94
2023-04-18T06:29:39.042Z,101859.00
2023-04-18T06:34:40.649Z,101854.00
2023-04-18T06:39:42.175Z,101852.97
2023-04-18T06:44:43.743Z,101850.22
2023-04-18T06:49:45.285Z,101852.94
2023-04-18T06:54:46.765Z,101855.50
2023-04-18T06:59:48.281Z,101862.06
2023-04-18T07:04:49.798Z,101862.41
2023-04-18T07:09:51.346Z,101868.03
2023-04-18T07:14:53.979Z,101877.59
2023-04-18T07:19:55.504Z,101866.00
2023-04-18T07:24:57.015Z,101867.13
2023-04-18T07:29:58.569Z,101872.06
2023-04-18T07:35:00.154Z,101880.91
2023-04-18T07:40:01.781Z,101878.06
2023-04-18T07:45:03.646Z,101882.09
2023-04-18T07:50:05.588Z,101886.38
2023-04-18T07:55:07.556Z,101880.91
2023-04-18T08:00:09.789Z,101884.34
2023-04-18T08:05:19.496Z,101880.63
2023-04-18T08:10:23.256Z,101879.94
2023-04-18T08:15:25.410Z,101884.59
2023-04-18T08:20:27.203Z,101892.25
2023-04-18T08:25:28.978Z,101893.38
2023-04-18T08:30:30.562Z,101885.53
2023-04-18T08:35:32.130Z,101888.97
2023-04-18T08:40:33.873Z,101895.72
2023-04-18T08:45:35.535Z,101895.03
2023-04-18T08:50:37.070Z,101894.22
2023-04-18T08:55:38.619Z,101898.66
2023-04-18T09:00:40.152Z,101899.53
2023-04-18T09:05:41.772Z,101902.81
2023-04-18T09:10:44.810Z,101912.38
2023-04-18T09:15:54.930Z,101894.75
2023-04-18T09:20:56.541Z,101893.97
2023-04-18T09:25:58.124Z,101904.59
2023-04-18T09:31:11.228Z,101902.13
2023-04-18T09:36:24.890Z,101900.25
2023-04-18T09:41:26.467Z,101889.81
2023-04-18T09:46:28.418Z,101892.72
2023-04-18T09:51:31.644Z,101883.88
2023-04-18T09:56:36.465Z,101887.84
2023-04-18T10:01:39.018Z,101889.94
2023-04-18T10:06:41.148Z,101881.66
2023-04-18T10:11:43.733Z,101883.41
2023-04-18T10:16:45.413Z,101876.84
2023-04-18T10:22:01.061Z,101865.84
2023-04-18T10:27:02.662Z,101868.19
2023-04-18T10:32:06.250Z,101865.94
2023-04-18T10:37:07.848Z,101862.50
2023-04-18T10:42:09.413Z,101859.78
2023-04-18T10:47:29.000Z,101859.50
2023-04-18T10:52:31.148Z,101853.28
2023-04-18T10:57:40.366Z,101848.25
2023-04-18T11:02:49.258Z,101841.72
2023-04-18T11:07:51.208Z,101837.28
2023-04-18T11:12:55.337Z,101828.19
2023-04-18T11:18:00.383Z,101838.03
2023-04-18T11:23:01.976Z,101835.84
2023-04-18T11:28:04.504Z,101828.03
2023-04-18T11:33:07.984Z,101834.97
2023-04-18T11:38:12.730Z,101833.00
2023-04-18T11:48:22.648Z,101828.16
2023-04-18T11:53:38.023Z,101828.22
2023-04-18T11:58:39.786Z,101834.47
2023-04-18T12:03:41.599Z,101833.06
2023-04-18T12:08:43.310Z,101834.31
2023-04-18T12:13:45.998Z,101835.28
2023-04-18T12:18:47.553Z,101829.59
2023-04-18T12:23:49.068Z,101824.47
2023-04-18T12:28:51.343Z,101828.06
2023-04-18T12:33:52.910Z,101830.56
2023-04-18T12:38:54.477Z,101837.44
2023-04-18T12:43:56.043Z,101827.13
2023-04-18T12:48:57.564Z,101828.59
2023-04-18T12:53:59.185Z,101820.91
2023-04-18T12:59:00.719Z,101824.38
2023-04-18T13:04:11.814Z,101813.94
2023-04-18T13:09:14.962Z,101821.19
2023-04-18T13:14:16.756Z,101811.56
2023-04-18T13:19:18.269Z,101821.72
2023-04-18T13:24:19.772Z,101801.00
2023-04-18T13:29:21.292Z,101817.41
2023-04-18T13:34:22.806Z,101807.53
2023-04-18T13:39:24.390Z,101801.66
2023-04-18T13:44:25.889Z,101804.78
2023-04-18T13:49:27.894Z,101795.06
2023-04-18T13:54:31.091Z,101799.16
2023-04-18T13:59:33.425Z,101799.13
2023-04-18T14:04:35.785Z,101806.22
2023-04-18T14:09:37.418Z,101807.75
2023-04-18T14:14:39.063Z,101811.97
2023-04-18T14:19:40.578Z,101806.03
2023-04-18T14:24:42.210Z,101815.44
2023-04-18T14:29:43.718Z,101802.16
2023-04-18T14:34:45.275Z,101811.25
2023-04-18T14:39:46.788Z,101813.00
2023-04-18T14:44:48.299Z,101808.75
2023-04-18T14:49:49.801Z,101805.88
2023-04-18T14:54:51.369Z,101807.53
2023-04-18T14:59:53.007Z,101804.56
2023-04-18T15:04:54.590Z,101804.00
2023-04-18T15:09:56.169Z,101800.94
2023-04-18T15:14:59.676Z,101808.47
2023-04-18T15:20:01.227Z,101804.41
2023-04-18T15:25:03.627Z,101799.97
2023-04-18T15:30:05.882Z,101791.94
2023-04-18T15:35:08.871Z,101804.44
2023-04-18T15:40:10.817Z,101793.66
2023-04-18T15:45:12.513Z,101789.84
2023-04-18T15:50:14.136Z,101787.50
2023-04-18T15:55:15.669Z,101775.84
2023-04-18T16:00:17.715Z,101773.41
2023-04-18T16:05:19.264Z,101772.91
2023-04-18T16:10:20.826Z,101773.69
2023-04-18T16:15:22.418Z,101778.22
2023-04-18T16:20:24.174Z,101775.84
2023-04-18T16:25:25.982Z,101773.03
2023-04-18T16:30:27.521Z,101771.69
2023-04-18T16:35:29.251Z,101776.72
2023-04-18T16:40:30.787Z,101774.53
2023-04-18T16:45:32.900Z,101766.34
2023-04-18T16:50:34.405Z,101764.50
2023-04-18T16:55:35.919Z,101761.06
2023-04-18T17:00:38.495Z,101760.13
2023-04-18T17:05:40.351Z,101751.25
2023-04-18T17:10:41.918Z,101759.44
2023-04-18T17:15:43.430Z,101763.22
2023-04-18T17:20:45.033Z,101769.16
2023-04-18T17:25:46.558Z,101776.28
2023-04-18T17:30:48.068Z,101783.91
2023-04-18T17:35:49.633Z,101772.13
2023-04-18T17:41:09.000Z,101779.53
2023-04-18T17:46:10.684Z,101789.00
2023-04-18T17:51:12.372Z,101785.31
2023-04-18T17:56:14.059Z,101788.91
2023-04-18T18:01:17.468Z,101795.72
2023-04-18T18:06:19.039Z,101800.75
2023-04-18T18:11:20.538Z,101792.50
2023-04-18T18:16:22.242Z,101796.16
2023-04-18T18:21:23.823Z,101796.69
2023-04-18T18:26:25.382Z,101807.16
2023-04-18T18:31:26.951Z,101812.28
2023-04-18T18:36:28.637Z,101810.72
2023-04-18T18:41:30.231Z,101814.66
2023-04-18T18:46:31.795Z,101823.88
2023-04-18T18:51:33.340Z,101823.88
2023-04-18T18:56:34.924Z,101836.34
2023-04-18T19:01:36.608Z,101838.19
2023-04-18T19:06:38.383Z,101846.75
2023-04-18T19:11:39.929Z,101845.91
2023-04-18T19:16:41.585Z,101859.22
2023-04-18T19:21:43.610Z,101861.03
2023-04-18T19:26:45.116Z,101859.97
2023-04-18T19:31:46.754Z,101863.03
2023-04-18T19:36:48.504Z,101859.41
2023-04-18T19:41:50.084Z,101872.06
2023-04-18T19:46:51.702Z,101878.72
2023-04-18T19:51:53.368Z,101882.06
2023-04-18T19:56:55.654Z,101883.16
2023-04-18T20:01:59.489Z,101879.69
2023-04-18T20:07:03.326Z,101882.16
2023-04-18T20:12:05.074Z,101885.97
2023-04-18T20:17:06.838Z,101891.00
2023-04-18T20:22:08.528Z,101881.78
2023-04-18T20:27:10.658Z,101877.22
2023-04-18T20:32:12.514Z,101883.59
2023-04-18T20:37:14.107Z,101877.50
2023-04-18T20:42:15.798Z,101885.69
2023-04-18T20:47:17.426Z,101893.56
2023-04-18T20:52:19.005Z,101894.34
2023-04-18T20:57:20.525Z,101892.31
2023-04-18T21:02:22.149Z,101891.38
2023-04-18T21:07:23.803Z,101900.47
2023-04-18T21:12:25.413Z,101896.59
2023-04-18T21:17:27.010Z,101888.75
2023-04-18T21:22:28.538Z,101902.47
2023-04-18T21:27:30.331Z,101905.97
2023-04-18T21:32:31.911Z,101900.28
2023-04-18T21:37:33.592Z,101895.63
2023-04-18T21:42:35.809Z,101912.19
2023-04-18T21:47:37.380Z,101909.34
2023-04-18T21:52:38.871Z,101911.69
2023-04-18T21:57:40.501Z,101903.03
2023-04-18T22:02:42.141Z,101910.09
2023-04-18T22:07:56.943Z,101914.56
2023-04-18T22:12:59.448Z,101905.31
2023-04-18T22:18:01.014Z,101904.72
2023-04-18T22:23:03.001Z,101915.09
2023-04-18T22:28:04.878Z,101917.16
2023-04-18T22:33:06.488Z,101907.81
2023-04-18T22:38:08.165Z,101912.88
2023-04-18T22:43:09.724Z,101912.44
2023-04-18T22:48:11.406Z,101924.03
2023-04-18T22:53:13.464Z,101917.59
2023-04-18T22:58:15.101Z,101913.47
2023-04-18T23:03:16.857Z,101927.25
2023-04-18T23:08:18.474Z,101920.53
2023-04-18T23:13:20.131Z,101914.31
2023-04-18T23:18:21.675Z,101915.56
2023-04-18T23:23:23.248Z,101920.72
2023-04-18T23:28:24.900Z,101917.72
2023-04-18T23:33:26.441Z,101919.69
2023-04-18T23:38:28.066Z,101910.97
2023-04-18T23:43:29.662Z,101910.69
2023-04-18T23:48:31.251Z,101909.88
2023-04-18T23:53:32.904Z,101919.25
2023-04-18T23:58:34.500Z,101913.69
